Decoded Metar for OMDB (DUBAI in UNITED ARAB EMIRATES) (IATA:DXB) | Meteo·Mobile Aviation Weather
aviador You're here:

OMDB Decoded Metar

DUBAI in UNITED ARAB EMIRATES
Report Time2019-01-19 16:00:00
UTC Time2019-01-19 16:32:15
Flight Rules vfr VFR
Wind280° at 14 kt
W.Decomp.*RWY 30: 13.1 kt HW 5 kt LCW
W.Rank280° ranks 8
Current wind is above 280° avg. (10.2)
Visibility9999 m
Phenomena:N/A
Clouds:Scattered 035 Hf
Expected CloudBase > 3,600 ft AGL from Temp-Dew spread
CeilingNone
Temp20°C (ISA +5)
Dew Point11°C (56% RH)
AAT15.3°C
QNH1017 hPa
Density Alt646 ft
Elevation16 ft
Report Wrong Elevation
Raw Report
METAR OMDB 191600Z 28014KT 9999 SCT035 20/11 Q1017 NOSIG=

Extra information for OMDB:More info

Metar Taf Metar & Taf Last 4 Metars F.Rules Stats Wind Profile Meteogram Temp Stats Airport Information Weather charts Add Link Nearby VenuesMetar ALERT Operation Metar Decoded Social comments